Time;durP1;ratioP1;P1;durP2;ratioP2;P2;SDS_P1;SDS_P2;PMS_P1;PMS_P2;Temp;Humidity;BMP_temperature;BMP_pressure;BME280_temperature;BME280_humidity;BME280_pressure;Samples;Min_cycle;Max_cycle;Signal;HPM_P1;HPM_P2
2021/01/01 00:01:47;;;;;;;55.47;33.87;;;6.30;99.90;;;;;;5070906;28;20192;-77
2021/01/01 00:04:12;;;;;;;59.57;35.73;;;6.30;99.90;;;;;;5076430;28;20509;-78
2021/01/01 00:06:39;;;;;;;63.67;36.47;;;6.20;99.90;;;;;;5072109;28;20225;-77
2021/01/01 00:09:07;;;;;;;60.13;35.13;;;6.20;99.90;;;;;;5072578;28;20664;-78
2021/01/01 00:11:35;;;;;;;61.20;35.43;;;6.30;99.90;;;;;;5075253;28;20550;-77
2021/01/01 00:14:01;;;;;;;64.50;38.40;;;6.20;99.90;;;;;;5064400;28;20181;-77
2021/01/01 00:16:26;;;;;;;66.90;37.43;;;6.20;99.90;;;;;;5077949;28;20187;-77
2021/01/01 00:18:52;;;;;;;62.77;36.80;;;6.10;99.90;;;;;;5071844;28;20274;-78
2021/01/01 00:21:19;;;;;;;56.13;33.17;;;6.00;99.90;;;;;;5074859;28;20193;-78
2021/01/01 00:23:44;;;;;;;63.03;36.07;;;5.80;99.90;;;;;;5052844;28;20696;-78
2021/01/01 00:26:15;;;;;;;57.17;33.63;;;5.60;99.90;;;;;;5073861;28;20217;-78
2021/01/01 00:28:45;;;;;;;55.67;34.97;;;5.40;99.90;;;;;;5066784;28;20296;-78
2021/01/01 00:31:26;;;;;;;58.67;35.17;;;5.30;99.90;;;;;;5071448;28;20195;-78
2021/01/01 00:33:52;;;;;;;60.47;34.33;;;5.30;99.90;;;;;;5058613;28;20579;-77
2021/01/01 00:36:20;;;;;;;54.57;34.50;;;5.20;99.90;;;;;;5059411;28;20229;-77
2021/01/01 00:38:51;;;;;;;55.53;33.33;;;5.20;99.90;;;;;;5075331;28;20655;-78
2021/01/01 00:41:24;;;;;;;71.57;37.93;;;5.20;99.90;;;;;;5073995;28;20188;-78
2021/01/01 00:43:54;;;;;;;69.83;38.47;;;5.20;99.90;;;;;;5057417;28;20226;-78
2021/01/01 00:46:23;;;;;;;72.67;40.30;;;5.30;99.90;;;;;;5058992;28;20211;-78
2021/01/01 00:48:50;;;;;;;95.50;51.70;;;5.40;99.90;;;;;;5061349;28;20957;-77
2021/01/01 00:51:24;;;;;;;75.07;41.13;;;5.50;99.90;;;;;;5091288;28;20237;-77
2021/01/01 00:53:50;;;;;;;124.47;63.43;;;5.60;99.90;;;;;;5072691;28;20191;-78
2021/01/01 00:56:23;;;;;;;75.13;41.23;;;5.60;99.90;;;;;;5074058;28;20239;-77
2021/01/01 00:58:50;;;;;;;69.90;39.00;;;5.70;99.90;;;;;;5055870;28;20196;-77
2021/01/01 01:01:22;;;;;;;66.60;37.57;;;5.60;99.90;;;;;;5059528;28;20210;-77
2021/01/01 01:03:51;;;;;;;65.43;36.77;;;5.50;99.90;;;;;;5077781;28;20200;-77
2021/01/01 01:06:17;;;;;;;61.70;36.50;;;5.40;99.90;;;;;;5058053;28;20255;-77
2021/01/01 01:08:43;;;;;;;61.47;35.37;;;5.50;99.90;;;;;;5074775;28;20284;-77
2021/01/01 01:11:10;;;;;;;60.80;36.47;;;5.50;99.90;;;;;;5069704;28;20173;-77
2021/01/01 01:13:36;;;;;;;62.87;36.07;;;5.50;99.90;;;;;;5075209;28;20228;-77
2021/01/01 01:16:02;;;;;;;64.07;37.80;;;5.50;99.90;;;;;;5055769;28;20191;-78
2021/01/01 01:18:28;;;;;;;58.20;36.20;;;5.50;99.90;;;;;;5074141;28;20196;-77
2021/01/01 01:20:53;;;;;;;58.03;33.40;;;5.60;99.90;;;;;;5061436;28;20265;-77
2021/01/01 01:23:20;;;;;;;59.23;33.73;;;5.60;99.90;;;;;;5091336;28;20209;-78
2021/01/01 01:25:46;;;;;;;55.57;34.93;;;5.60;99.90;;;;;;5057993;28;20929;-77
2021/01/01 01:28:12;;;;;;;62.77;35.17;;;5.60;99.90;;;;;;5074798;28;20205;-77
2021/01/01 01:30:38;;;;;;;54.43;34.30;;;5.70;99.90;;;;;;5057426;28;20592;-78
2021/01/01 01:33:04;;;;;;;53.87;32.13;;;5.70;99.90;;;;;;5075571;28;20182;-77
2021/01/01 01:35:30;;;;;;;68.47;40.20;;;5.60;99.90;;;;;;5073050;28;20651;-77
2021/01/01 01:37:55;;;;;;;58.03;36.17;;;5.60;99.90;;;;;;5074489;28;20175;-78
2021/01/01 01:40:21;;;;;;;51.27;31.93;;;5.70;99.90;;;;;;5075392;28;20300;-77
2021/01/01 01:42:48;;;;;;;46.23;29.20;;;5.70;99.90;;;;;;5073590;28;20204;-78
2021/01/01 01:45:13;;;;;;;52.03;32.27;;;5.60;99.90;;;;;;5073658;28;20202;-78
2021/01/01 01:47:41;;;;;;;52.13;34.00;;;5.50;99.90;;;;;;5073039;28;20178;-77
2021/01/01 01:50:07;;;;;;;56.93;34.73;;;5.60;99.90;;;;;;5072940;28;20312;-78
2021/01/01 01:52:34;;;;;;;56.63;33.83;;;5.60;99.90;;;;;;5080366;28;20180;-77
2021/01/01 01:55:01;;;;;;;63.07;37.07;;;5.70;99.90;;;;;;5073566;28;20182;-77
2021/01/01 01:57:27;;;;;;;59.73;36.40;;;5.80;99.90;;;;;;5057856;28;20186;-77
2021/01/01 02:00:00;;;;;;;63.30;33.63;;;5.90;99.90;;;;;;5073247;28;20200;-77
2021/01/01 02:02:27;;;;;;;56.97;34.97;;;5.90;99.90;;;;;;5072164;28;20663;-77
2021/01/01 02:04:53;;;;;;;54.27;33.47;;;5.80;99.90;;;;;;5055516;28;20221;-78
2021/01/01 02:07:19;;;;;;;51.17;31.90;;;5.70;99.90;;;;;;5076515;28;20589;-78
2021/01/01 02:09:45;;;;;;;50.17;31.47;;;5.70;99.90;;;;;;5039936;28;20680;-77
2021/01/01 02:12:14;;;;;;;50.70;29.73;;;5.70;99.90;;;;;;5059207;28;20171;-78
2021/01/01 02:14:40;;;;;;;49.27;30.30;;;5.70;99.90;;;;;;5091713;28;20181;-77
2021/01/01 02:17:05;;;;;;;45.37;28.43;;;5.80;99.90;;;;;;5055096;28;20184;-78
2021/01/01 02:19:32;;;;;;;48.63;28.93;;;5.80;99.90;;;;;;5071861;28;20583;-77
2021/01/01 02:22:02;;;;;;;43.33;25.40;;;5.90;99.90;;;;;;5073336;28;20203;-78
2021/01/01 02:24:28;;;;;;;45.37;27.23;;;5.90;99.90;;;;;;5066969;28;20543;-78
2021/01/01 02:26:54;;;;;;;38.87;25.00;;;5.90;99.90;;;;;;5072064;28;20239;-77
2021/01/01 02:29:20;;;;;;;38.57;23.40;;;5.90;99.90;;;;;;5052394;28;20263;-78
2021/01/01 02:31:46;;;;;;;37.80;23.73;;;5.90;99.90;;;;;;5034108;28;20706;-78
2021/01/01 02:34:12;;;;;;;36.70;22.53;;;5.80;99.90;;;;;;5054668;28;20183;-77
2021/01/01 02:36:37;;;;;;;32.63;20.90;;;5.80;99.90;;;;;;5051837;28;20229;-77
2021/01/01 02:39:04;;;;;;;31.50;20.37;;;5.80;99.90;;;;;;5084602;28;20522;-77
2021/01/01 02:41:30;;;;;;;34.90;20.33;;;5.90;99.90;;;;;;5061513;28;20631;-78
2021/01/01 02:43:55;;;;;;;34.00;19.93;;;6.00;99.90;;;;;;5053072;28;20257;-77
2021/01/01 02:46:21;;;;;;;31.03;19.90;;;6.00;99.90;;;;;;5052250;28;20174;-77
2021/01/01 02:48:47;;;;;;;33.57;21.33;;;6.10;99.90;;;;;;5051721;28;20533;-77
2021/01/01 02:51:12;;;;;;;31.23;19.67;;;6.20;99.90;;;;;;5051809;28;20209;-78
2021/01/01 02:53:38;;;;;;;32.07;20.90;;;6.20;99.90;;;;;;5052676;28;20261;-77
2021/01/01 02:56:04;;;;;;;32.10;20.53;;;6.10;99.90;;;;;;5050758;28;20334;-77
2021/01/01 02:58:29;;;;;;;35.03;20.10;;;6.10;99.90;;;;;;5069204;28;20208;-77
2021/01/01 03:00:55;;;;;;;32.03;19.60;;;6.10;99.90;;;;;;5048824;28;20683;-78
2021/01/01 03:03:21;;;;;;;29.87;18.90;;;6.10;99.90;;;;;;5052517;28;20563;-78
2021/01/01 03:05:47;;;;;;;32.20;19.27;;;6.10;99.90;;;;;;5052748;28;20315;-77
2021/01/01 03:08:12;;;;;;;28.53;19.17;;;6.10;99.90;;;;;;5049978;28;20212;-77
2021/01/01 03:10:38;;;;;;;30.87;19.37;;;6.20;99.90;;;;;;5050139;28;20216;-77
2021/01/01 03:13:04;;;;;;;30.07;18.57;;;6.10;99.90;;;;;;5050598;28;20206;-77
2021/01/01 03:15:30;;;;;;;28.53;18.73;;;6.10;99.90;;;;;;5051802;28;20200;-78
2021/01/01 03:17:56;;;;;;;28.93;17.97;;;6.10;99.90;;;;;;5050950;28;20204;-78
2021/01/01 03:20:21;;;;;;;27.37;17.93;;;6.00;99.90;;;;;;5065719;28;20182;-78
2021/01/01 03:22:47;;;;;;;29.60;17.90;;;6.00;99.90;;;;;;5083959;28;20203;-77
2021/01/01 03:25:13;;;;;;;28.67;18.27;;;5.90;99.90;;;;;;5035038;28;20180;-77
2021/01/01 03:27:39;;;;;;;29.73;18.30;;;5.80;99.90;;;;;;5052680;28;20232;-78
2021/01/01 03:30:06;;;;;;;30.13;18.53;;;5.80;99.90;;;;;;5054205;28;20695;-77
2021/01/01 03:32:32;;;;;;;28.50;17.93;;;5.70;99.90;;;;;;5065020;28;20670;-77
2021/01/01 03:34:58;;;;;;;35.40;18.60;;;5.70;99.90;;;;;;5049970;28;20209;-78
2021/01/01 03:37:24;;;;;;;30.90;18.23;;;5.60;99.90;;;;;;5049079;28;20550;-77
2021/01/01 03:39:50;;;;;;;33.73;19.17;;;5.50;99.90;;;;;;5082251;28;20230;-78
2021/01/01 03:42:15;;;;;;;31.17;19.20;;;5.60;99.90;;;;;;5051448;28;20241;-77
2021/01/01 03:44:41;;;;;;;30.77;18.07;;;5.60;99.90;;;;;;5048610;28;20194;-77
2021/01/01 03:47:07;;;;;;;29.47;18.20;;;5.60;99.90;;;;;;5049907;28;20232;-77
2021/01/01 03:49:33;;;;;;;30.80;18.83;;;5.60;99.90;;;;;;5050995;28;20261;-77
2021/01/01 03:51:59;;;;;;;30.90;18.70;;;5.50;99.90;;;;;;5052107;28;20213;-77
2021/01/01 03:54:25;;;;;;;27.27;17.83;;;5.50;99.90;;;;;;5056287;28;20171;-77
2021/01/01 03:56:50;;;;;;;29.90;17.30;;;5.40;99.90;;;;;;5049808;28;20703;-77
2021/01/01 03:59:16;;;;;;;31.13;18.30;;;5.40;99.90;;;;;;5051397;28;20662;-77
2021/01/01 04:01:41;;;;;;;32.00;19.63;;;5.30;99.90;;;;;;5054176;28;20431;-78
2021/01/01 04:04:07;;;;;;;32.30;19.57;;;5.20;99.90;;;;;;5032007;28;20240;-77
2021/01/01 04:06:33;;;;;;;33.37;18.37;;;5.20;99.90;;;;;;5053239;28;20187;-77
2021/01/01 04:08:58;;;;;;;31.20;18.57;;;5.20;99.90;;;;;;5048740;28;20214;-77
2021/01/01 04:11:24;;;;;;;29.77;17.67;;;5.10;99.90;;;;;;5051889;28;20186;-77
2021/01/01 04:13:50;;;;;;;27.70;17.90;;;5.10;99.90;;;;;;5052226;28;20196;-78
2021/01/01 04:16:15;;;;;;;30.33;18.33;;;5.10;99.90;;;;;;5050167;28;20198;-78
2021/01/01 04:18:41;;;;;;;32.03;17.63;;;5.20;99.90;;;;;;5050318;28;20258;-78
2021/01/01 04:21:07;;;;;;;29.73;18.07;;;5.20;99.90;;;;;;5049562;28;20216;-78
2021/01/01 04:23:36;;;;;;;31.63;19.53;;;5.30;99.90;;;;;;5045654;28;20209;-78
2021/01/01 04:26:03;;;;;;;31.73;19.60;;;5.40;99.90;;;;;;5036389;28;20215;-77
2021/01/01 04:28:29;;;;;;;34.13;19.10;;;5.50;99.90;;;;;;5050118;28;20652;-77
2021/01/01 04:30:55;;;;;;;31.77;19.60;;;5.50;99.90;;;;;;5048435;28;20321;-77
2021/01/01 04:33:21;;;;;;;30.40;18.90;;;5.40;99.90;;;;;;5052275;28;20712;-77
2021/01/01 04:35:47;;;;;;;34.80;18.90;;;5.30;99.90;;;;;;5048381;28;20620;-77
2021/01/01 04:38:12;;;;;;;29.63;17.40;;;5.30;99.90;;;;;;5034105;28;20180;-77
2021/01/01 04:40:40;;;;;;;33.13;19.10;;;5.30;99.90;;;;;;5051250;28;20185;-77
2021/01/01 04:43:06;;;;;;;35.07;19.80;;;5.20;99.90;;;;;;5082840;28;20200;-77
2021/01/01 04:45:32;;;;;;;32.37;20.50;;;5.20;99.90;;;;;;5048424;28;20176;-77
2021/01/01 04:47:58;;;;;;;34.13;20.13;;;5.20;99.90;;;;;;5050150;28;20669;-77
2021/01/01 04:50:24;;;;;;;37.23;20.60;;;5.20;99.90;;;;;;5055113;28;20177;-77
2021/01/01 04:52:50;;;;;;;31.23;19.40;;;5.20;99.90;;;;;;5049862;28;20184;-77
2021/01/01 04:55:17;;;;;;;39.77;22.07;;;5.20;99.90;;;;;;5070060;28;20654;-78
2021/01/01 04:57:42;;;;;;;35.60;20.77;;;5.20;99.90;;;;;;5085428;28;20188;-77
2021/01/01 05:00:09;;;;;;;30.43;18.83;;;5.30;99.90;;;;;;5053638;28;20266;-77
2021/01/01 05:02:34;;;;;;;32.43;18.73;;;5.10;99.90;;;;;;5034043;28;20295;-77
2021/01/01 05:05:00;;;;;;;28.93;17.73;;;5.00;99.90;;;;;;5085201;28;20330;-77
2021/01/01 05:07:28;;;;;;;30.03;18.10;;;5.10;99.90;;;;;;5053592;28;20194;-77
2021/01/01 05:09:55;;;;;;;29.43;17.60;;;5.00;99.90;;;;;;5055542;28;20228;-77
2021/01/01 05:12:30;;;;;;;28.50;17.40;;;5.00;99.90;;;;;;5053454;28;20190;-77
2021/01/01 05:14:56;;;;;;;31.93;18.53;;;4.90;99.90;;;;;;5055830;28;20267;-77
2021/01/01 05:17:35;;;;;;;33.20;19.03;;;4.90;99.90;;;;;;5053222;28;20663;-77
2021/01/01 05:20:11;;;;;;;30.17;19.53;;;4.80;99.90;;;;;;5057436;28;20180;-77
2021/01/01 05:22:37;;;;;;;33.57;19.50;;;4.80;99.90;;;;;;5068349;28;20250;-77
2021/01/01 05:25:23;;;;;;;32.80;19.77;;;4.80;99.90;;;;;;5036421;28;20201;-77
2021/01/01 05:27:49;;;;;;;33.07;19.93;;;4.70;99.90;;;;;;5054449;28;20205;-77
2021/01/01 05:30:16;;;;;;;36.60;20.67;;;4.70;99.90;;;;;;5065097;28;20698;-77
2021/01/01 05:32:52;;;;;;;34.00;20.20;;;4.50;99.90;;;;;;5073703;28;20181;-77
2021/01/01 05:35:31;;;;;;;31.53;19.37;;;4.40;99.90;;;;;;5088104;28;20191;-77
2021/01/01 05:38:14;;;;;;;33.73;19.40;;;4.20;99.90;;;;;;5057789;28;20550;-77
2021/01/01 05:40:40;;;;;;;29.53;19.63;;;4.00;99.90;;;;;;5074366;28;20225;-77
2021/01/01 05:43:23;;;;;;;35.60;20.93;;;3.90;99.90;;;;;;5073314;28;20203;-78
2021/01/01 05:45:50;;;;;;;36.33;20.40;;;4.10;99.90;;;;;;5077451;28;20229;-79
2021/01/01 05:48:17;;;;;;;33.00;20.80;;;4.10;99.90;;;;;;5073297;28;20183;-78
2021/01/01 05:50:44;;;;;;;37.70;21.37;;;4.30;99.90;;;;;;5041496;28;20214;-78
2021/01/01 05:53:12;;;;;;;33.53;20.73;;;4.40;99.90;;;;;;5074593;28;20219;-78
2021/01/01 05:55:38;;;;;;;39.07;22.30;;;4.50;99.90;;;;;;5071573;28;20237;-78
2021/01/01 05:58:26;;;;;;;35.77;21.57;;;4.60;99.90;;;;;;5055128;28;20191;-78
2021/01/01 06:00:54;;;;;;;34.73;20.10;;;4.60;99.90;;;;;;5071135;28;20555;-78
2021/01/01 06:03:25;;;;;;;32.07;19.87;;;4.60;99.90;;;;;;5073451;28;20215;-78
2021/01/01 06:05:55;;;;;;;33.53;20.67;;;4.60;99.90;;;;;;5068449;28;20644;-78
2021/01/01 06:08:27;;;;;;;38.33;20.73;;;4.50;99.90;;;;;;5073298;28;20200;-79
2021/01/01 06:10:58;;;;;;;35.47;20.60;;;4.50;99.90;;;;;;5072684;28;20239;-78
2021/01/01 06:13:24;;;;;;;39.13;20.40;;;4.50;99.90;;;;;;5092623;28;20662;-78
2021/01/01 06:15:57;;;;;;;38.03;22.43;;;4.50;99.90;;;;;;5077691;28;20281;-78
2021/01/01 06:18:30;;;;;;;32.30;19.77;;;4.50;99.90;;;;;;5070293;28;20178;-78
2021/01/01 06:21:07;;;;;;;36.77;20.47;;;4.50;99.90;;;;;;5071717;28;20180;-78
2021/01/01 06:23:40;;;;;;;31.77;19.40;;;4.40;99.90;;;;;;5088868;28;20238;-78
2021/01/01 06:26:08;;;;;;;35.00;20.17;;;4.40;99.90;;;;;;5072603;28;20313;-78
2021/01/01 06:28:44;;;;;;;31.07;18.10;;;4.40;99.90;;;;;;5072100;28;20203;-78
2021/01/01 06:31:13;;;;;;;30.23;18.83;;;4.40;99.90;;;;;;5069972;28;20218;-78
2021/01/01 06:33:43;;;;;;;30.00;19.73;;;4.50;99.90;;;;;;5041910;28;20186;-78
2021/01/01 06:36:29;;;;;;;36.07;20.57;;;4.50;99.90;;;;;;5071131;28;20190;-78
2021/01/01 06:38:55;;;;;;;36.17;21.30;;;4.50;99.90;;;;;;5071629;28;20644;-78
2021/01/01 06:41:43;;;;;;;37.07;21.00;;;4.60;99.90;;;;;;5089664;28;20184;-78
2021/01/01 06:44:09;;;;;;;36.93;21.83;;;4.70;99.90;;;;;;5070807;28;20207;-78
2021/01/01 06:46:39;;;;;;;35.23;21.80;;;4.70;99.90;;;;;;5072915;28;20514;-78
2021/01/01 06:49:06;;;;;;;37.53;22.07;;;4.70;99.90;;;;;;5071808;28;20168;-78
2021/01/01 06:51:33;;;;;;;35.30;21.57;;;4.80;99.90;;;;;;5056616;28;20207;-78
2021/01/01 06:54:11;;;;;;;36.57;22.33;;;4.70;99.90;;;;;;5054509;28;20192;-78
2021/01/01 06:56:40;;;;;;;36.03;21.80;;;4.60;99.90;;;;;;5072095;28;20202;-78
2021/01/01 06:59:14;;;;;;;36.00;20.83;;;4.40;99.90;;;;;;5073047;28;20202;-78
2021/01/01 07:01:44;;;;;;;41.57;27.20;;;4.20;99.90;;;;;;5053037;28;20523;-79
2021/01/01 07:04:11;;;;;;;31.43;20.47;;;3.80;99.90;;;;;;5091639;28;20195;-78
2021/01/01 07:06:38;;;;;;;31.43;20.30;;;3.90;99.90;;;;;;5053136;28;20658;-78
2021/01/01 07:09:05;;;;;;;31.13;19.27;;;3.90;99.90;;;;;;5070518;28;20203;-78
2021/01/01 07:11:32;;;;;;;33.73;19.30;;;3.80;99.90;;;;;;5054492;28;20168;-78
2021/01/01 07:14:09;;;;;;;33.47;19.70;;;3.80;99.90;;;;;;5055275;28;20769;-78
2021/01/01 07:16:44;;;;;;;33.70;18.97;;;3.70;99.90;;;;;;5059644;28;20545;-78
2021/01/01 07:19:10;;;;;;;33.47;18.30;;;3.60;99.90;;;;;;5072491;28;20277;-78
2021/01/01 07:21:39;;;;;;;31.33;18.27;;;3.60;99.90;;;;;;5071734;28;20345;-78
2021/01/01 07:24:05;;;;;;;28.73;18.10;;;3.50;99.90;;;;;;5054730;28;20200;-78
2021/01/01 07:26:31;;;;;;;32.75;21.80;;;3.50;99.90;;;;;;5070583;28;20972;-78
2021/01/01 07:28:59;;;;;;;32.67;19.57;;;3.50;99.90;;;;;;5073924;28;20175;-78
2021/01/01 07:31:26;;;;;;;33.20;19.50;;;3.60;99.90;;;;;;5071782;28;20195;-78
2021/01/01 07:33:52;;;;;;;34.03;18.83;;;3.80;99.90;;;;;;5041325;28;20227;-75
2021/01/01 07:36:18;;;;;;;34.60;19.23;;;3.90;99.90;;;;;;5071528;28;20184;-75
2021/01/01 07:38:46;;;;;;;33.17;19.50;;;3.90;99.90;;;;;;5072630;28;20179;-76
2021/01/01 07:41:12;;;;;;;29.80;19.13;;;3.90;99.90;;;;;;5074281;28;20225;-76
2021/01/01 07:43:38;;;;;;;33.90;19.90;;;3.90;99.90;;;;;;5053937;28;20203;-76
2021/01/01 07:46:06;;;;;;;33.60;19.93;;;3.90;99.90;;;;;;5071062;28;20207;-77
2021/01/01 07:48:32;;;;;;;30.03;19.33;;;3.80;99.90;;;;;;5070833;28;20188;-76
2021/01/01 07:51:01;;;;;;;35.07;20.20;;;3.80;99.90;;;;;;5071366;28;20188;-76
2021/01/01 07:53:26;;;;;;;33.57;19.03;;;3.90;99.90;;;;;;5056037;28;20616;-76
2021/01/01 07:55:57;;;;;;;33.60;19.50;;;3.90;99.90;;;;;;5057529;28;20312;-76
2021/01/01 07:58:24;;;;;;;32.93;19.33;;;4.00;99.90;;;;;;5071633;28;20224;-77
2021/01/01 08:00:49;;;;;;;32.20;18.80;;;4.00;99.90;;;;;;5068660;28;20649;-76
2021/01/01 08:03:15;;;;;;;33.43;19.47;;;4.10;99.90;;;;;;5069575;28;20259;-77
2021/01/01 08:05:44;;;;;;;32.97;19.27;;;4.30;99.90;;;;;;5068902;28;20195;-77
2021/01/01 08:08:12;;;;;;;30.40;19.67;;;4.30;99.90;;;;;;5071548;28;20188;-77
2021/01/01 08:10:39;;;;;;;30.37;18.33;;;4.40;99.90;;;;;;5069807;28;20659;-76
2021/01/01 08:13:31;;;;;;;28.43;17.50;;;4.40;99.90;;;;;;5079285;28;20549;-76
2021/01/01 08:16:09;;;;;;;28.27;17.10;;;4.40;99.90;;;;;;5052667;28;22232;-77
2021/01/01 08:18:34;;;;;;;29.77;18.23;;;4.60;99.90;;;;;;5074109;28;20196;-77
2021/01/01 08:21:02;;;;;;;28.37;18.33;;;4.70;99.90;;;;;;5088449;28;20220;-76
2021/01/01 08:23:37;;;;;;;28.57;17.30;;;4.70;99.90;;;;;;5070085;28;20193;-77
2021/01/01 08:26:05;;;;;;;26.60;17.03;;;4.80;99.90;;;;;;5070576;28;20202;-76
2021/01/01 08:28:32;;;;;;;28.27;17.40;;;4.90;99.90;;;;;;5073341;28;20173;-77
2021/01/01 08:31:06;;;;;;;26.47;16.73;;;4.90;99.90;;;;;;5070851;28;20247;-77
2021/01/01 08:33:43;;;;;;;29.83;17.57;;;5.00;99.90;;;;;;5069702;28;20177;-77
2021/01/01 08:36:10;;;;;;;29.50;17.47;;;5.10;99.90;;;;;;5039760;28;20202;-77
2021/01/01 08:38:38;;;;;;;29.30;18.13;;;5.20;99.90;;;;;;5041361;28;20617;-76
2021/01/01 08:41:04;;;;;;;31.07;18.93;;;5.10;99.90;;;;;;5074269;28;20262;-77
2021/01/01 08:43:30;;;;;;;31.73;18.87;;;5.10;99.90;;;;;;5090196;28;20200;-77
2021/01/01 08:45:56;;;;;;;28.13;17.87;;;5.10;99.90;;;;;;5058862;28;20597;-77
2021/01/01 08:48:27;;;;;;;29.00;16.80;;;5.20;99.90;;;;;;5056437;28;20644;-77
2021/01/01 08:50:52;;;;;;;28.73;16.93;;;5.20;99.90;;;;;;5073293;28;20187;-77
2021/01/01 08:53:19;;;;;;;23.97;16.53;;;5.30;99.90;;;;;;5092412;28;20181;-77
2021/01/01 08:55:57;;;;;;;24.43;15.83;;;5.40;99.90;;;;;;5055886;28;20539;-77
2021/01/01 08:58:22;;;;;;;24.20;14.97;;;5.50;99.90;;;;;;5074771;28;20650;-77
2021/01/01 09:00:48;;;;;;;21.97;15.23;;;5.50;99.90;;;;;;5074603;28;20189;-77
2021/01/01 09:03:16;;;;;;;24.73;16.23;;;5.60;99.90;;;;;;5073298;28;20679;-77
2021/01/01 09:05:42;;;;;;;23.33;15.13;;;5.80;99.90;;;;;;5059567;28;20951;-77
2021/01/01 09:08:12;;;;;;;24.23;15.70;;;5.90;99.90;;;;;;5073173;28;20180;-77
2021/01/01 09:10:42;;;;;;;23.73;16.13;;;6.00;99.90;;;;;;5055944;28;20185;-77
2021/01/01 09:13:26;;;;;;;23.20;15.30;;;6.10;99.90;;;;;;5058047;28;20635;-78
2021/01/01 09:16:03;;;;;;;21.77;14.87;;;6.20;99.90;;;;;;5057519;28;20215;-78
2021/01/01 09:18:31;;;;;;;22.93;14.47;;;6.20;99.90;;;;;;5058592;28;20168;-77
2021/01/01 09:21:14;;;;;;;23.53;14.63;;;6.30;99.90;;;;;;5057121;28;20179;-78
2021/01/01 09:23:40;;;;;;;21.63;14.53;;;6.30;99.90;;;;;;5058759;28;20287;-78
2021/01/01 09:26:07;;;;;;;25.87;15.23;;;6.30;99.90;;;;;;5058515;28;20163;-77
2021/01/01 09:28:34;;;;;;;24.30;16.10;;;6.40;99.90;;;;;;5059268;28;20185;-78
2021/01/01 09:31:00;;;;;;;24.63;16.73;;;6.40;99.90;;;;;;5056312;28;20712;-78
2021/01/01 09:33:26;;;;;;;25.73;17.43;;;6.40;99.90;;;;;;5040113;28;20216;-78
2021/01/01 09:35:52;;;;;;;26.13;16.33;;;6.50;99.90;;;;;;5056550;28;20177;-77
2021/01/01 09:38:21;;;;;;;24.60;16.07;;;6.50;99.90;;;;;;5069370;28;20692;-77
2021/01/01 09:40:47;;;;;;;23.87;15.30;;;6.50;99.90;;;;;;5057110;28;20647;-79
2021/01/01 09:43:13;;;;;;;24.70;16.20;;;6.50;99.90;;;;;;5073210;28;20234;-78
2021/01/01 09:45:39;;;;;;;25.47;15.97;;;6.50;99.90;;;;;;5056457;28;20262;-78
2021/01/01 09:48:05;;;;;;;25.60;16.93;;;6.50;99.90;;;;;;5054895;28;20186;-77
2021/01/01 09:50:31;;;;;;;29.40;18.27;;;6.70;99.90;;;;;;5082092;28;20219;-78
2021/01/01 09:52:57;;;;;;;34.93;18.97;;;6.70;99.90;;;;;;5057087;28;20215;-78
2021/01/01 09:55:23;;;;;;;27.93;18.13;;;6.70;99.90;;;;;;5072338;28;20237;-78
2021/01/01 09:57:49;;;;;;;31.70;18.23;;;6.70;99.90;;;;;;5056539;28;20176;-78
2021/01/01 10:00:16;;;;;;;36.87;18.57;;;6.70;99.90;;;;;;5057507;28;20184;-77
2021/01/01 10:02:43;;;;;;;29.30;18.10;;;6.70;99.90;;;;;;5088094;28;20274;-77
2021/01/01 10:05:10;;;;;;;31.97;18.13;;;6.80;99.90;;;;;;5070629;28;20218;-78
2021/01/01 10:07:36;;;;;;;29.43;17.80;;;6.80;99.90;;;;;;5072079;28;20217;-77
2021/01/01 10:10:03;;;;;;;28.43;17.23;;;6.90;99.90;;;;;;5053748;28;20582;-77
2021/01/01 10:12:29;;;;;;;27.57;17.30;;;7.00;99.90;;;;;;5057111;28;20193;-77
2021/01/01 10:14:55;;;;;;;28.17;16.83;;;7.00;99.90;;;;;;5058116;28;20186;-78
2021/01/01 10:17:28;;;;;;;27.87;16.70;;;7.10;99.90;;;;;;5055379;28;20185;-78
2021/01/01 10:19:55;;;;;;;28.90;17.03;;;7.00;99.90;;;;;;5059933;28;20185;-78
2021/01/01 10:22:21;;;;;;;24.70;15.90;;;7.10;99.90;;;;;;5086916;28;20681;-77
2021/01/01 10:24:47;;;;;;;25.70;16.23;;;7.20;99.90;;;;;;5072749;28;20173;-77
2021/01/01 10:27:14;;;;;;;27.27;16.53;;;7.20;99.90;;;;;;5056739;28;20200;-78
2021/01/01 10:29:40;;;;;;;28.07;17.27;;;7.20;99.90;;;;;;5075030;28;20217;-78
2021/01/01 10:32:07;;;;;;;25.03;16.23;;;7.30;99.90;;;;;;5073301;28;20175;-78
2021/01/01 10:34:33;;;;;;;31.23;16.03;;;7.30;99.90;;;;;;5057586;28;20278;-78
2021/01/01 10:36:59;;;;;;;24.87;15.70;;;7.40;99.90;;;;;;5072085;28;20212;-78
2021/01/01 10:39:26;;;;;;;29.30;16.43;;;7.60;99.90;;;;;;5054539;28;20189;-77
2021/01/01 10:41:51;;;;;;;23.70;15.90;;;7.60;99.90;;;;;;5057498;28;20195;-78
2021/01/01 10:44:18;;;;;;;25.93;16.13;;;7.80;99.90;;;;;;5073897;28;20198;-78
2021/01/01 10:46:49;;;;;;;26.40;16.17;;;7.80;99.90;;;;;;5069156;28;20661;-77
2021/01/01 10:49:15;;;;;;;28.20;16.27;;;7.90;99.90;;;;;;5072380;28;20186;-78
2021/01/01 10:51:40;;;;;;;27.50;15.50;;;7.90;99.90;;;;;;5055651;28;20262;-78
2021/01/01 10:54:06;;;;;;;26.33;15.33;;;7.90;99.90;;;;;;5071011;28;20275;-78
2021/01/01 10:56:32;;;;;;;27.17;14.97;;;8.00;99.90;;;;;;5054557;28;20602;-79
2021/01/01 10:58:57;;;;;;;22.20;14.23;;;8.00;99.90;;;;;;5072197;28;20262;-78
2021/01/01 11:01:24;;;;;;;25.97;15.33;;;7.80;99.90;;;;;;5058456;28;20195;-78
2021/01/01 11:03:50;;;;;;;24.53;14.63;;;7.80;99.90;;;;;;5054303;28;20209;-77
2021/01/01 11:06:17;;;;;;;24.37;14.77;;;7.80;99.90;;;;;;5073521;28;20244;-78
2021/01/01 11:08:44;;;;;;;26.30;14.87;;;7.90;99.90;;;;;;5075443;28;20188;-78
2021/01/01 11:11:11;;;;;;;27.17;16.50;;;7.80;99.90;;;;;;5072110;28;20229;-78
2021/01/01 11:13:44;;;;;;;26.17;15.70;;;7.80;99.90;;;;;;5070504;28;20233;-78
2021/01/01 12:22:31;;;;;;;21.50;12.70;;;9.10;99.90;;;;;;5085510;28;20642;-79
2021/01/01 12:24:57;;;;;;;23.57;12.60;;;9.20;99.90;;;;;;5073139;28;20175;-79
2021/01/01 12:27:28;;;;;;;18.83;11.83;;;9.50;99.90;;;;;;5068832;28;20249;-79
2021/01/01 12:29:55;;;;;;;18.27;11.67;;;10.00;99.90;;;;;;5049733;28;20280;-78
2021/01/01 12:32:21;;;;;;;18.77;11.17;;;10.40;99.90;;;;;;5085944;28;20192;-79
2021/01/01 12:34:47;;;;;;;20.83;11.27;;;10.50;99.90;;;;;;5059127;28;20708;-79
2021/01/01 12:37:13;;;;;;;18.63;10.93;;;10.80;99.90;;;;;;5049060;28;20207;-79
2021/01/01 12:39:39;;;;;;;19.60;10.97;;;11.30;99.90;;;;;;5049485;28;20189;-79
2021/01/01 12:42:05;;;;;;;20.50;10.30;;;11.40;99.90;;;;;;5066652;28;20194;-77
2021/01/01 12:44:31;;;;;;;17.33;10.80;;;11.70;99.90;;;;;;5063515;28;20207;-77
2021/01/01 12:46:59;;;;;;;18.20;10.90;;;11.80;99.90;;;;;;5066026;28;20179;-77
2021/01/01 12:49:25;;;;;;;19.70;11.77;;;11.40;99.90;;;;;;5064817;28;20581;-77
2021/01/01 12:51:51;;;;;;;17.93;10.67;;;11.20;99.90;;;;;;5048206;28;20311;-77
2021/01/01 12:54:16;;;;;;;18.90;11.33;;;10.80;99.90;;;;;;5066483;28;20562;-77
2021/01/01 12:56:42;;;;;;;24.87;13.57;;;10.50;99.90;;;;;;5082406;28;20193;-77
2021/01/01 12:59:08;;;;;;;22.80;12.20;;;10.20;99.90;;;;;;5067583;28;20211;-77
2021/01/01 13:01:34;;;;;;;24.07;14.33;;;9.80;99.90;;;;;;5048553;28;20216;-77
2021/01/01 13:04:00;;;;;;;27.00;14.83;;;9.60;99.90;;;;;;5034506;28;20210;-77
2021/01/01 13:06:26;;;;;;;22.63;13.30;;;9.50;99.90;;;;;;5033007;28;20183;-77
2021/01/01 13:08:53;;;;;;;25.93;14.23;;;9.20;99.90;;;;;;5051357;28;20225;-78
2021/01/01 13:11:19;;;;;;;23.77;13.27;;;8.90;99.90;;;;;;5036612;28;20184;-76
2021/01/01 13:13:45;;;;;;;26.50;14.70;;;8.70;99.90;;;;;;5036215;28;20197;-77
2021/01/01 13:16:10;;;;;;;27.83;16.73;;;8.60;99.90;;;;;;5070076;28;20206;-77
2021/01/01 13:18:36;;;;;;;25.00;13.30;;;8.50;99.90;;;;;;5070626;28;20629;-77
2021/01/01 13:21:06;;;;;;;26.00;14.47;;;8.40;99.90;;;;;;5070190;28;20183;-76
2021/01/01 13:23:39;;;;;;;32.43;16.27;;;8.20;99.90;;;;;;5036675;28;20199;-77
2021/01/01 13:26:05;;;;;;;32.17;18.03;;;8.00;99.90;;;;;;5052612;28;20249;-77
2021/01/01 13:28:30;;;;;;;29.40;15.17;;;7.90;99.90;;;;;;5070344;28;20649;-77
2021/01/01 13:30:56;;;;;;;31.47;14.50;;;7.80;99.90;;;;;;5068641;28;20236;-77
2021/01/01 13:33:22;;;;;;;27.83;14.17;;;7.60;99.90;;;;;;5069904;28;20203;-78
2021/01/01 13:35:51;;;;;;;29.20;15.90;;;7.60;99.90;;;;;;5052793;28;20192;-77
2021/01/01 13:38:18;;;;;;;27.70;14.87;;;7.40;99.90;;;;;;5052592;28;20207;-76
2021/01/01 13:40:43;;;;;;;26.93;14.83;;;7.50;99.90;;;;;;5054103;28;20334;-76
2021/01/01 13:43:09;;;;;;;29.97;15.13;;;7.50;99.90;;;;;;5036143;28;20749;-77
2021/01/01 13:45:35;;;;;;;30.00;16.43;;;7.50;99.90;;;;;;5085647;28;21052;-77